WJA2032 CYYZ-MWCR
Flight info
| Callsign | WJA2032 |
|---|---|
| Flight time | N/A |
| Altitude | 34000 |
| Route | BETES3 AIRRA Q103 SLOJO/N0460F350 DCT EFFAY/N0462F360 Q83 JEVED Q97 DEBRL/N0467F350 Q97 EBAYY/N0468F360 Q93 MCLAW Y442 FUNDI/N0468F350 UM335 ALVEK UM328 UCL UZ313 LACET |
| Aircraft | B38M/M-SDE1FGHILORVWXY/HB1 |
Departure
| Time | N/A |
|---|---|
| Airport | Toronto Pearson International Airport (CYYZ) |
Arrival
| Time | 2026-05-03 22:28 |
|---|---|
| Airport | Owen Roberts International Airport (MWCR) |
| Time | Latitude | Longitude | Altitude | Speed | Heading |
|---|---|---|---|---|---|
| 2026-05-03 20:15 | 33.58640 | -80.71114 | 36078 ft | 400 kts | 205° |
| 2026-05-03 20:15 | 33.52301 | -80.72963 | 36128 ft | 396 kts | 205° |
| 2026-05-03 20:16 | 33.41575 | -80.76117 | 36125 ft | 396 kts | 205° |
| 2026-05-03 20:16 | 33.31826 | -80.78985 | 36093 ft | 395 kts | 205° |
| 2026-05-03 20:17 | 33.24398 | -80.81151 | 36125 ft | 394 kts | 205° |
| 2026-05-03 20:17 | 33.13723 | -80.84287 | 36136 ft | 394 kts | 205° |
| 2026-05-03 20:18 | 33.03141 | -80.87361 | 36136 ft | 393 kts | 205° |
| 2026-05-03 20:18 | 32.92465 | -80.90470 | 36134 ft | 394 kts | 205° |
| 2026-05-03 20:19 | 32.85590 | -80.92463 | 36143 ft | 396 kts | 205° |
| 2026-05-03 20:19 | 32.80242 | -80.94012 | 36101 ft | 394 kts | 205° |
| 2026-05-03 20:20 | 32.73107 | -80.96083 | 36133 ft | 394 kts | 205° |
| 2026-05-03 20:20 | 32.65787 | -80.98197 | 36136 ft | 393 kts | 205° |
| 2026-05-03 20:21 | 32.60460 | -80.99730 | 36150 ft | 394 kts | 205° |
| 2026-05-03 20:21 | 32.55162 | -81.01257 | 36096 ft | 393 kts | 205° |
| 2026-05-03 20:21 | 32.52436 | -81.01851 | 36120 ft | 405 kts | 194° |
| 2026-05-03 20:22 | 32.49590 | -81.01894 | 36158 ft | 408 kts | 194° |
| 2026-05-03 20:22 | 32.43901 | -81.02044 | 36144 ft | 409 kts | 193° |
| 2026-05-03 20:23 | 32.33753 | -81.02240 | 36130 ft | 410 kts | 193° |
| 2026-05-03 20:23 | 32.22340 | -81.02432 | 36119 ft | 408 kts | 193° |
| 2026-05-03 20:24 | 32.12899 | -81.02621 | 36129 ft | 408 kts | 193° |
| 2026-05-03 20:24 | 32.00612 | -81.02820 | 36071 ft | 406 kts | 193° |
| 2026-05-03 20:25 | 31.95916 | -81.02951 | 36120 ft | 404 kts | 193° |
| 2026-05-03 20:25 | 31.87645 | -81.03177 | 36114 ft | 404 kts | 193° |
| 2026-05-03 20:26 | 31.76475 | -81.03476 | 36126 ft | 404 kts | 193° |
| 2026-05-03 20:26 | 31.65257 | -81.03776 | 36129 ft | 402 kts | 193° |
| 2026-05-03 20:27 | 31.54087 | -81.04306 | 36140 ft | 399 kts | 194° |
| 2026-05-03 20:27 | 31.43050 | -81.04999 | 36114 ft | 401 kts | 194° |
| 2026-05-03 20:28 | 31.31917 | -81.05693 | 36133 ft | 399 kts | 194° |
| 2026-05-03 20:28 | 31.23442 | -81.06116 | 36141 ft | 403 kts | 192° |
| 2026-05-03 20:29 | 31.17835 | -81.06214 | 36118 ft | 403 kts | 192° |
| 2026-05-03 20:29 | 31.12206 | -81.06333 | 36134 ft | 404 kts | 192° |
| 2026-05-03 20:30 | 31.06623 | -81.06454 | 36141 ft | 403 kts | 192° |
| 2026-05-03 20:30 | 31.01000 | -81.06576 | 36139 ft | 403 kts | 192° |
| 2026-05-03 20:31 | 30.95376 | -81.06698 | 36150 ft | 403 kts | 192° |
| 2026-05-03 20:31 | 30.89790 | -81.06819 | 36129 ft | 404 kts | 192° |
| 2026-05-03 20:32 | 30.84161 | -81.06940 | 36133 ft | 404 kts | 192° |
| 2026-05-03 20:32 | 30.78535 | -81.07061 | 36134 ft | 404 kts | 192° |
| 2026-05-03 20:33 | 30.72908 | -81.07182 | 36136 ft | 404 kts | 192° |
| 2026-05-03 20:33 | 30.67321 | -81.07303 | 36136 ft | 404 kts | 192° |
| 2026-05-03 20:34 | 30.61701 | -81.07499 | 36144 ft | 401 kts | 194° |
| 2026-05-03 20:34 | 30.56083 | -81.07850 | 36132 ft | 403 kts | 194° |
| 2026-05-03 20:35 | 30.50503 | -81.08183 | 36138 ft | 404 kts | 194° |
| 2026-05-03 20:35 | 30.44890 | -81.08517 | 36137 ft | 403 kts | 194° |
| 2026-05-03 20:36 | 30.39272 | -81.08851 | 36136 ft | 403 kts | 194° |
| 2026-05-03 20:36 | 30.33683 | -81.09183 | 36136 ft | 404 kts | 194° |
| 2026-05-03 20:37 | 30.28060 | -81.09516 | 36135 ft | 403 kts | 194° |
| 2026-05-03 20:37 | 30.22479 | -81.09846 | 36133 ft | 403 kts | 194° |
| 2026-05-03 20:38 | 30.16867 | -81.10178 | 36136 ft | 403 kts | 194° |
| 2026-05-03 20:38 | 30.11246 | -81.10510 | 36136 ft | 403 kts | 194° |
| 2026-05-03 20:39 | 30.05665 | -81.10840 | 36128 ft | 405 kts | 194° |
| 2026-05-03 20:39 | 30.00011 | -81.11173 | 36139 ft | 405 kts | 194° |
| 2026-05-03 20:40 | 29.94374 | -81.11504 | 36144 ft | 405 kts | 194° |
| 2026-05-03 20:40 | 29.88746 | -81.11835 | 36143 ft | 405 kts | 194° |
| 2026-05-03 20:41 | 29.83137 | -81.12164 | 36138 ft | 405 kts | 194° |
| 2026-05-03 20:41 | 29.77444 | -81.12212 | 36139 ft | 409 kts | 192° |
| 2026-05-03 20:42 | 29.71745 | -81.12253 | 36136 ft | 409 kts | 192° |
| 2026-05-03 20:42 | 29.66079 | -81.12301 | 36135 ft | 409 kts | 192° |
| 2026-05-03 20:43 | 29.60382 | -81.12349 | 36133 ft | 409 kts | 192° |
| 2026-05-03 20:43 | 29.54704 | -81.12507 | 36133 ft | 407 kts | 194° |
| 2026-05-03 20:44 | 29.49070 | -81.12715 | 36116 ft | 407 kts | 194° |
| 2026-05-03 20:44 | 29.43386 | -81.12918 | 36125 ft | 407 kts | 194° |
| 2026-05-03 20:45 | 29.37752 | -81.13120 | 36117 ft | 407 kts | 194° |
| 2026-05-03 20:45 | 29.32084 | -81.13317 | 36120 ft | 409 kts | 192° |
| 2026-05-03 20:45 | 29.29188 | -81.12931 | 36097 ft | 432 kts | 177° |
| 2026-05-03 20:46 | 29.26329 | -81.11806 | 36130 ft | 442 kts | 173° |
| 2026-05-03 20:46 | 29.20533 | -81.09343 | 36106 ft | 445 kts | 172° |
| 2026-05-03 20:47 | 29.14722 | -81.06797 | 36111 ft | 446 kts | 172° |
| 2026-05-03 20:47 | 29.08924 | -81.04241 | 36113 ft | 446 kts | 172° |
| 2026-05-03 20:48 | 29.03165 | -81.01704 | 36117 ft | 446 kts | 172° |
| 2026-05-03 20:48 | 28.97369 | -80.99154 | 36114 ft | 446 kts | 172° |
| 2026-05-03 20:49 | 28.91573 | -80.96606 | 36090 ft | 446 kts | 172° |
| 2026-05-03 20:49 | 28.85762 | -80.94055 | 36109 ft | 447 kts | 172° |
| 2026-05-03 20:50 | 28.79955 | -80.91509 | 36092 ft | 447 kts | 172° |
| 2026-05-03 20:50 | 28.74182 | -80.88981 | 36082 ft | 448 kts | 172° |
| 2026-05-03 20:51 | 28.68343 | -80.86520 | 36080 ft | 442 kts | 175° |
| 2026-05-03 20:51 | 28.62514 | -80.84305 | 36058 ft | 444 kts | 174° |
| 2026-05-03 20:52 | 28.56644 | -80.82051 | 36090 ft | 445 kts | 174° |
| 2026-05-03 20:52 | 28.50766 | -80.79794 | 36091 ft | 445 kts | 174° |
| 2026-05-03 20:53 | 28.44951 | -80.77564 | 36094 ft | 445 kts | 174° |
| 2026-05-03 20:53 | 28.39085 | -80.75316 | 36088 ft | 444 kts | 174° |
| 2026-05-03 20:54 | 28.33218 | -80.73071 | 36044 ft | 444 kts | 174° |
| 2026-05-03 20:54 | 28.24394 | -80.69700 | 36080 ft | 445 kts | 174° |
| 2026-05-03 20:55 | 28.18549 | -80.67470 | 36069 ft | 445 kts | 174° |
| 2026-05-03 20:55 | 28.12671 | -80.65230 | 36067 ft | 445 kts | 174° |
| 2026-05-03 20:56 | 28.06809 | -80.62998 | 36082 ft | 445 kts | 174° |
| 2026-05-03 20:56 | 28.00925 | -80.60761 | 36042 ft | 446 kts | 174° |
| 2026-05-03 20:57 | 27.95031 | -80.58523 | 36059 ft | 446 kts | 174° |
| 2026-05-03 20:57 | 27.89164 | -80.56297 | 36065 ft | 446 kts | 174° |
| 2026-05-03 20:58 | 27.83296 | -80.54074 | 36064 ft | 446 kts | 174° |
| 2026-05-03 20:58 | 27.77394 | -80.51840 | 36066 ft | 448 kts | 174° |
| 2026-05-03 20:59 | 27.74433 | -80.50816 | 36057 ft | 436 kts | 182° |
| 2026-05-03 20:59 | 27.71512 | -80.50608 | 36037 ft | 409 kts | 195° |
| 2026-05-03 20:59 | 27.65844 | -80.51157 | 36065 ft | 410 kts | 197° |
| 2026-05-03 21:00 | 27.62046 | -80.51625 | 36073 ft | 409 kts | 197° |
| 2026-05-03 21:00 | 27.54525 | -80.52639 | 36062 ft | 408 kts | 198° |
| 2026-05-03 21:01 | 27.48877 | -80.53420 | 36065 ft | 409 kts | 198° |
| 2026-05-03 21:01 | 27.46078 | -80.53808 | 36260 ft | 409 kts | 198° |
| 2026-05-03 21:01 | 27.43242 | -80.54201 | 36483 ft | 408 kts | 198° |
| 2026-05-03 21:02 | 27.40426 | -80.54590 | 36713 ft | 407 kts | 198° |
| 2026-05-03 21:02 | 27.37602 | -80.54981 | 36944 ft | 406 kts | 198° |
| 2026-05-03 21:02 | 27.34832 | -80.55364 | 37174 ft | 405 kts | 198° |
| 2026-05-03 21:02 | 27.32031 | -80.55751 | 37418 ft | 404 kts | 198° |
| 2026-05-03 21:03 | 27.29247 | -80.56135 | 37653 ft | 402 kts | 198° |
| 2026-05-03 21:03 | 27.26471 | -80.56519 | 37880 ft | 401 kts | 198° |
| 2026-05-03 21:03 | 27.23704 | -80.56901 | 38053 ft | 399 kts | 198° |
| 2026-05-03 21:03 | 27.20948 | -80.57281 | 38051 ft | 397 kts | 198° |
| 2026-05-03 21:04 | 27.15478 | -80.58035 | 38005 ft | 395 kts | 198° |
| 2026-05-03 21:04 | 27.10018 | -80.58786 | 38048 ft | 398 kts | 198° |
| 2026-05-03 21:05 | 27.04509 | -80.59544 | 38044 ft | 398 kts | 198° |
| 2026-05-03 21:05 | 26.99005 | -80.60300 | 38040 ft | 398 kts | 198° |
| 2026-05-03 21:06 | 26.93505 | -80.61056 | 38039 ft | 398 kts | 198° |
| 2026-05-03 21:06 | 26.88000 | -80.61810 | 38040 ft | 398 kts | 198° |
| 2026-05-03 21:07 | 26.82527 | -80.62560 | 38023 ft | 399 kts | 197° |
| 2026-05-03 21:07 | 26.76999 | -80.63317 | 38038 ft | 401 kts | 197° |
| 2026-05-03 21:08 | 26.71460 | -80.64074 | 38040 ft | 400 kts | 197° |
| 2026-05-03 21:08 | 26.65918 | -80.64831 | 38042 ft | 401 kts | 197° |
| 2026-05-03 21:09 | 26.60418 | -80.65582 | 38042 ft | 400 kts | 197° |
| 2026-05-03 21:09 | 26.54878 | -80.66337 | 37990 ft | 400 kts | 196° |
| 2026-05-03 21:10 | 26.49320 | -80.67095 | 38042 ft | 405 kts | 196° |
| 2026-05-03 21:10 | 26.44681 | -80.67725 | 38069 ft | 402 kts | 196° |
| 2026-05-03 21:11 | 26.39103 | -80.68484 | 38025 ft | 403 kts | 196° |
| 2026-05-03 21:11 | 26.33549 | -80.69238 | 38050 ft | 404 kts | 196° |
| 2026-05-03 21:12 | 26.27956 | -80.69997 | 37997 ft | 404 kts | 196° |
| 2026-05-03 21:12 | 26.22398 | -80.70752 | 38036 ft | 401 kts | 195° |
| 2026-05-03 21:13 | 26.16814 | -80.71508 | 38031 ft | 406 kts | 195° |
| 2026-05-03 21:13 | 26.11199 | -80.72267 | 38032 ft | 410 kts | 195° |
| 2026-05-03 21:14 | 26.05493 | -80.73038 | 38032 ft | 413 kts | 195° |
| 2026-05-03 21:14 | 25.99793 | -80.73808 | 38029 ft | 412 kts | 195° |
| 2026-05-03 21:15 | 25.94119 | -80.74574 | 37994 ft | 413 kts | 196° |
| 2026-05-03 21:15 | 25.88374 | -80.75348 | 38033 ft | 416 kts | 196° |
| 2026-05-03 21:16 | 25.82649 | -80.76118 | 38019 ft | 416 kts | 196° |
| 2026-05-03 21:16 | 25.76959 | -80.77120 | 38025 ft | 408 kts | 201° |
| 2026-05-03 21:17 | 25.71405 | -80.78494 | 38031 ft | 411 kts | 201° |
| 2026-05-03 21:17 | 25.65799 | -80.79828 | 37991 ft | 410 kts | 200° |
| 2026-05-03 21:18 | 25.60192 | -80.81153 | 38018 ft | 412 kts | 200° |
| 2026-05-03 21:18 | 25.54622 | -80.82467 | 38014 ft | 412 kts | 200° |
| 2026-05-03 21:19 | 25.49013 | -80.83789 | 38015 ft | 411 kts | 200° |
| 2026-05-03 21:19 | 25.43405 | -80.85110 | 38012 ft | 411 kts | 200° |
| 2026-05-03 21:20 | 25.37797 | -80.86429 | 38012 ft | 411 kts | 200° |
| 2026-05-03 21:20 | 25.32203 | -80.87744 | 37990 ft | 413 kts | 200° |
| 2026-05-03 21:21 | 25.26553 | -80.89080 | 38012 ft | 417 kts | 200° |
| 2026-05-03 21:21 | 25.20916 | -80.90421 | 38006 ft | 416 kts | 200° |
| 2026-05-03 21:22 | 25.15243 | -80.91769 | 38010 ft | 415 kts | 200° |
| 2026-05-03 21:22 | 25.09646 | -80.93098 | 38006 ft | 412 kts | 200° |
| 2026-05-03 21:23 | 25.04017 | -80.94433 | 37980 ft | 413 kts | 200° |
| 2026-05-03 21:23 | 24.98354 | -80.95775 | 38013 ft | 417 kts | 199° |
| 2026-05-03 21:24 | 24.92692 | -80.97115 | 38007 ft | 418 kts | 199° |
| 2026-05-03 21:24 | 24.86994 | -80.98463 | 38019 ft | 418 kts | 199° |
| 2026-05-03 21:25 | 24.81325 | -80.99802 | 38018 ft | 418 kts | 199° |
| 2026-05-03 21:25 | 24.75571 | -81.00967 | 37998 ft | 427 kts | 189° |
| 2026-05-03 21:26 | 24.69604 | -81.01180 | 38006 ft | 430 kts | 190° |
| 2026-05-03 21:26 | 24.63631 | -81.01403 | 38016 ft | 432 kts | 190° |
| 2026-05-03 21:27 | 24.57624 | -81.01620 | 38004 ft | 432 kts | 189° |
| 2026-05-03 21:27 | 24.51579 | -81.01568 | 38005 ft | 434 kts | 188° |
| 2026-05-03 21:28 | 24.45582 | -81.01520 | 38005 ft | 434 kts | 188° |
| 2026-05-03 21:28 | 24.39529 | -81.01476 | 38004 ft | 434 kts | 188° |
| 2026-05-03 21:29 | 24.33476 | -81.01434 | 38004 ft | 434 kts | 188° |
| 2026-05-03 21:29 | 24.27470 | -81.01391 | 38004 ft | 434 kts | 188° |
| 2026-05-03 21:30 | 24.21415 | -81.01348 | 38006 ft | 434 kts | 188° |
| 2026-05-03 21:30 | 24.15416 | -81.01306 | 38007 ft | 433 kts | 188° |
| 2026-05-03 21:31 | 24.09378 | -81.01262 | 37994 ft | 433 kts | 187° |
| 2026-05-03 21:31 | 24.03374 | -81.01220 | 38005 ft | 433 kts | 187° |
| 2026-05-03 21:32 | 23.97327 | -81.01038 | 38010 ft | 435 kts | 185° |
| 2026-05-03 21:32 | 23.91263 | -81.00777 | 38007 ft | 435 kts | 186° |
| 2026-05-03 21:33 | 23.85206 | -81.00525 | 38007 ft | 435 kts | 186° |
| 2026-05-03 21:33 | 23.79186 | -81.00275 | 37977 ft | 435 kts | 185° |
| 2026-05-03 21:34 | 23.73102 | -81.00023 | 38016 ft | 439 kts | 185° |
| 2026-05-03 21:34 | 23.66977 | -80.99769 | 38004 ft | 440 kts | 185° |
| 2026-05-03 21:35 | 23.60832 | -80.99515 | 38006 ft | 440 kts | 185° |
| 2026-05-03 21:35 | 23.54721 | -80.99263 | 38006 ft | 440 kts | 185° |
| 2026-05-03 21:36 | 23.48611 | -80.99010 | 37971 ft | 440 kts | 185° |
| 2026-05-03 21:36 | 23.42445 | -80.98756 | 38015 ft | 444 kts | 184° |
| 2026-05-03 21:37 | 23.36295 | -80.98502 | 38006 ft | 444 kts | 184° |
| 2026-05-03 21:37 | 23.30104 | -80.98247 | 38008 ft | 444 kts | 184° |
| 2026-05-03 21:38 | 23.23954 | -80.97989 | 38008 ft | 444 kts | 184° |
| 2026-05-03 21:38 | 23.17765 | -80.97728 | 38007 ft | 444 kts | 184° |
| 2026-05-03 21:39 | 23.11562 | -80.97466 | 38006 ft | 447 kts | 183° |
| 2026-05-03 21:39 | 23.05351 | -80.97201 | 38011 ft | 449 kts | 183° |
| 2026-05-03 21:40 | 23.02264 | -80.97380 | 37971 ft | 438 kts | 198° |
| 2026-05-03 21:40 | 22.99383 | -80.98321 | 38026 ft | 430 kts | 203° |
| 2026-05-03 21:40 | 22.93711 | -81.00441 | 37991 ft | 433 kts | 204° |
| 2026-05-03 21:41 | 22.88031 | -81.02676 | 38002 ft | 433 kts | 205° |
| 2026-05-03 21:41 | 22.82370 | -81.04937 | 37981 ft | 435 kts | 206° |
| 2026-05-03 21:42 | 22.76663 | -81.07221 | 37999 ft | 439 kts | 206° |
| 2026-05-03 21:42 | 22.70951 | -81.09504 | 37996 ft | 439 kts | 206° |
| 2026-05-03 21:43 | 22.65203 | -81.11800 | 37995 ft | 439 kts | 206° |
| 2026-05-03 21:43 | 22.59461 | -81.14092 | 37996 ft | 439 kts | 206° |
| 2026-05-03 21:44 | 22.53761 | -81.16365 | 37982 ft | 439 kts | 206° |
| 2026-05-03 21:44 | 22.48028 | -81.18649 | 37993 ft | 438 kts | 206° |
| 2026-05-03 21:45 | 22.42305 | -81.20927 | 37994 ft | 438 kts | 207° |
| 2026-05-03 21:45 | 22.36579 | -81.23204 | 37997 ft | 438 kts | 207° |
| 2026-05-03 21:46 | 22.30877 | -81.25469 | 37996 ft | 438 kts | 207° |
| 2026-05-03 21:46 | 22.25145 | -81.27744 | 37996 ft | 438 kts | 207° |
| 2026-05-03 21:47 | 22.19417 | -81.30016 | 37995 ft | 437 kts | 206° |
| 2026-05-03 21:47 | 22.13737 | -81.32267 | 37998 ft | 436 kts | 207° |
| 2026-05-03 21:48 | 22.08021 | -81.34530 | 38002 ft | 437 kts | 206° |
| 2026-05-03 21:48 | 22.02341 | -81.36777 | 38002 ft | 437 kts | 206° |
| 2026-05-03 21:49 | 21.96629 | -81.39035 | 37998 ft | 437 kts | 206° |
| 2026-05-03 21:49 | 21.90918 | -81.41290 | 37998 ft | 437 kts | 206° |
| 2026-05-03 21:50 | 21.85229 | -81.43535 | 37998 ft | 437 kts | 206° |
| 2026-05-03 21:50 | 21.79515 | -81.45788 | 37998 ft | 437 kts | 206° |
| 2026-05-03 21:51 | 21.73789 | -81.48043 | 37998 ft | 437 kts | 206° |
| 2026-05-03 21:51 | 21.68060 | -81.50298 | 37996 ft | 437 kts | 206° |
| 2026-05-03 21:52 | 21.62380 | -81.52533 | 37999 ft | 437 kts | 206° |
| 2026-05-03 21:52 | 21.56393 | -81.54026 | 37984 ft | 445 kts | 197° |
| 2026-05-03 21:53 | 21.50281 | -81.55203 | 37998 ft | 444 kts | 196° |
| 2026-05-03 21:53 | 21.44233 | -81.56348 | 37996 ft | 444 kts | 196° |
| 2026-05-03 21:54 | 21.38135 | -81.57501 | 37993 ft | 444 kts | 196° |
| 2026-05-03 21:54 | 21.32035 | -81.58652 | 37991 ft | 444 kts | 196° |
| 2026-05-03 21:55 | 21.25986 | -81.59793 | 37991 ft | 444 kts | 196° |
| 2026-05-03 21:55 | 21.19898 | -81.60941 | 37991 ft | 444 kts | 196° |
| 2026-05-03 21:56 | 21.13808 | -81.62088 | 37991 ft | 444 kts | 196° |
| 2026-05-03 21:56 | 21.07713 | -81.63235 | 37990 ft | 444 kts | 196° |
| 2026-05-03 21:57 | 21.01659 | -81.64373 | 37993 ft | 444 kts | 196° |
| 2026-05-03 21:57 | 20.95556 | -81.65519 | 37993 ft | 444 kts | 196° |
| 2026-05-03 21:58 | 20.89476 | -81.66660 | 37995 ft | 446 kts | 196° |
| 2026-05-03 21:58 | 20.84363 | -81.67619 | 37994 ft | 448 kts | 196° |
| 2026-05-03 21:59 | 20.78234 | -81.68768 | 37992 ft | 446 kts | 196° |
| 2026-05-03 21:59 | 20.72094 | -81.69918 | 37995 ft | 448 kts | 196° |
| 2026-05-03 22:00 | 20.65973 | -81.71065 | 37995 ft | 448 kts | 196° |
| 2026-05-03 22:00 | 20.59861 | -81.72206 | 37983 ft | 448 kts | 196° |
| 2026-05-03 22:01 | 20.53723 | -81.73352 | 37992 ft | 447 kts | 196° |
| 2026-05-03 22:01 | 20.47599 | -81.74495 | 37994 ft | 446 kts | 196° |
| 2026-05-03 22:02 | 20.41483 | -81.75636 | 37992 ft | 446 kts | 196° |
| 2026-05-03 22:02 | 20.35354 | -81.76778 | 37990 ft | 446 kts | 196° |
| 2026-05-03 22:03 | 20.29271 | -81.77911 | 37991 ft | 446 kts | 196° |
| 2026-05-03 22:03 | 20.23143 | -81.79051 | 37989 ft | 445 kts | 195° |
| 2026-05-03 22:04 | 20.17029 | -81.80184 | 37987 ft | 445 kts | 195° |
| 2026-05-03 22:04 | 20.10843 | -81.80305 | 37967 ft | 461 kts | 170° |
| 2026-05-03 22:05 | 20.07812 | -81.79069 | 38011 ft | 472 kts | 157° |
| 2026-05-03 22:05 | 20.05041 | -81.77129 | 37982 ft | 482 kts | 144° |
| 2026-05-03 22:05 | 20.00446 | -81.71837 | 38001 ft | 489 kts | 137° |
| 2026-05-03 22:06 | 19.98148 | -81.69191 | 37636 ft | 482 kts | 137° |
| 2026-05-03 22:06 | 19.95907 | -81.66610 | 37187 ft | 476 kts | 137° |
| 2026-05-03 22:06 | 19.93661 | -81.64029 | 36573 ft | 474 kts | 136° |
| 2026-05-03 22:06 | 19.91419 | -81.61464 | 35925 ft | 474 kts | 136° |
| 2026-05-03 22:07 | 19.89159 | -81.58885 | 35234 ft | 475 kts | 136° |
| 2026-05-03 22:07 | 19.86932 | -81.56343 | 34500 ft | 476 kts | 135° |
| 2026-05-03 22:07 | 19.84676 | -81.53770 | 33751 ft | 477 kts | 135° |
| 2026-05-03 22:07 | 19.82405 | -81.51186 | 32957 ft | 478 kts | 135° |
| 2026-05-03 22:08 | 19.80131 | -81.48598 | 32190 ft | 479 kts | 135° |
| 2026-05-03 22:08 | 19.77851 | -81.46002 | 31441 ft | 479 kts | 135° |
| 2026-05-03 22:08 | 19.75603 | -81.43443 | 30719 ft | 479 kts | 135° |
| 2026-05-03 22:08 | 19.73332 | -81.40859 | 30016 ft | 478 kts | 135° |
| 2026-05-03 22:09 | 19.71055 | -81.38269 | 29199 ft | 479 kts | 135° |
| 2026-05-03 22:09 | 19.68781 | -81.35683 | 28409 ft | 479 kts | 135° |
| 2026-05-03 22:09 | 19.66502 | -81.33092 | 27625 ft | 480 kts | 135° |
| 2026-05-03 22:10 | 19.61962 | -81.27924 | 26147 ft | 473 kts | 135° |
| 2026-05-03 22:10 | 19.59729 | -81.25376 | 25441 ft | 468 kts | 135° |
| 2026-05-03 22:10 | 19.57549 | -81.22889 | 24751 ft | 462 kts | 135° |
| 2026-05-03 22:10 | 19.55370 | -81.20405 | 24082 ft | 456 kts | 135° |
| 2026-05-03 22:11 | 19.53216 | -81.17951 | 23389 ft | 451 kts | 134° |
| 2026-05-03 22:11 | 19.51091 | -81.15528 | 22620 ft | 444 kts | 134° |
| 2026-05-03 22:11 | 19.48996 | -81.13142 | 21859 ft | 438 kts | 134° |
| 2026-05-03 22:11 | 19.46934 | -81.10793 | 21120 ft | 432 kts | 134° |
| 2026-05-03 22:12 | 19.44895 | -81.08471 | 20399 ft | 427 kts | 134° |
| 2026-05-03 22:12 | 19.42907 | -81.06209 | 19701 ft | 423 kts | 134° |
| 2026-05-03 22:12 | 19.40910 | -81.03940 | 19012 ft | 419 kts | 133° |
| 2026-05-03 22:12 | 19.38935 | -81.01695 | 18337 ft | 414 kts | 133° |
| 2026-05-03 22:13 | 19.36984 | -80.99481 | 17567 ft | 407 kts | 133° |
| 2026-05-03 22:13 | 19.35068 | -80.97305 | 16809 ft | 400 kts | 133° |
| 2026-05-03 22:13 | 19.33170 | -80.95185 | 16078 ft | 393 kts | 137° |
| 2026-05-03 22:13 | 19.30977 | -80.93494 | 15354 ft | 385 kts | 153° |
| 2026-05-03 22:14 | 19.28541 | -80.92491 | 14657 ft | 378 kts | 167° |
| 2026-05-03 22:14 | 19.25950 | -80.92193 | 13972 ft | 371 kts | 182° |
| 2026-05-03 22:14 | 19.23403 | -80.92494 | 13254 ft | 365 kts | 189° |
| 2026-05-03 22:14 | 19.20908 | -80.92912 | 12579 ft | 359 kts | 190° |
| 2026-05-03 22:15 | 19.18484 | -80.93324 | 12139 ft | 347 kts | 190° |
| 2026-05-03 22:15 | 19.16133 | -80.93729 | 11723 ft | 335 kts | 191° |
| 2026-05-03 22:15 | 19.13906 | -80.94217 | 11336 ft | 324 kts | 194° |
| 2026-05-03 22:15 | 19.11747 | -80.94742 | 10986 ft | 313 kts | 194° |
| 2026-05-03 22:16 | 19.09687 | -80.95355 | 10624 ft | 302 kts | 207° |
| 2026-05-03 22:16 | 19.08140 | -80.96739 | 10320 ft | 288 kts | 238° |
| 2026-05-03 22:16 | 19.07496 | -80.98672 | 10082 ft | 276 kts | 263° |
| 2026-05-03 22:16 | 19.07416 | -81.00693 | 9737 ft | 275 kts | 274° |
| 2026-05-03 22:17 | 19.07681 | -81.02683 | 9311 ft | 279 kts | 279° |
| 2026-05-03 22:17 | 19.08008 | -81.04716 | 8962 ft | 280 kts | 279° |
| 2026-05-03 22:17 | 19.08340 | -81.06750 | 8646 ft | 281 kts | 279° |
| 2026-05-03 22:17 | 19.08672 | -81.08788 | 8327 ft | 281 kts | 279° |
| 2026-05-03 22:18 | 19.09006 | -81.10829 | 8012 ft | 281 kts | 279° |
| 2026-05-03 22:18 | 19.09340 | -81.12838 | 7879 ft | 272 kts | 279° |
| 2026-05-03 22:18 | 19.09667 | -81.14772 | 7814 ft | 261 kts | 279° |
| 2026-05-03 22:18 | 19.09982 | -81.16661 | 7757 ft | 265 kts | 278° |
| 2026-05-03 22:19 | 19.10297 | -81.18619 | 7717 ft | 274 kts | 279° |
| 2026-05-03 22:19 | 19.10615 | -81.20598 | 7670 ft | 278 kts | 279° |
| 2026-05-03 22:19 | 19.10944 | -81.22631 | 7549 ft | 279 kts | 278° |
| 2026-05-03 22:19 | 19.11276 | -81.24664 | 7330 ft | 280 kts | 278° |
| 2026-05-03 22:20 | 19.11603 | -81.26677 | 7037 ft | 281 kts | 278° |
| 2026-05-03 22:20 | 19.11934 | -81.28715 | 6723 ft | 281 kts | 278° |
| 2026-05-03 22:20 | 19.12265 | -81.30753 | 6406 ft | 281 kts | 278° |
| 2026-05-03 22:20 | 19.12596 | -81.32790 | 6077 ft | 280 kts | 278° |
| 2026-05-03 22:21 | 19.12927 | -81.34818 | 5756 ft | 279 kts | 278° |
| 2026-05-03 22:21 | 19.13254 | -81.36824 | 5455 ft | 278 kts | 278° |
| 2026-05-03 22:21 | 19.13581 | -81.38838 | 5150 ft | 278 kts | 278° |
| 2026-05-03 22:21 | 19.13907 | -81.40848 | 4838 ft | 277 kts | 278° |
| 2026-05-03 22:22 | 19.14234 | -81.42857 | 4531 ft | 276 kts | 278° |
| 2026-05-03 22:22 | 19.14558 | -81.44855 | 4209 ft | 275 kts | 278° |
| 2026-05-03 22:22 | 19.14878 | -81.46835 | 4015 ft | 270 kts | 278° |
| 2026-05-03 22:22 | 19.15309 | -81.48711 | 3854 ft | 263 kts | 294° |
| 2026-05-03 22:23 | 19.16424 | -81.50190 | 3680 ft | 255 kts | 324° |
| 2026-05-03 22:23 | 19.18001 | -81.50956 | 3537 ft | 245 kts | 347° |
| 2026-05-03 22:23 | 19.19627 | -81.51420 | 3406 ft | 237 kts | 347° |
| 2026-05-03 22:23 | 19.21186 | -81.51854 | 3261 ft | 231 kts | 347° |
| 2026-05-03 22:24 | 19.22725 | -81.52253 | 3116 ft | 220 kts | 354° |
| 2026-05-03 22:24 | 19.24161 | -81.52051 | 2921 ft | 203 kts | 30° |
| 2026-05-03 22:24 | 19.25190 | -81.51138 | 2663 ft | 189 kts | 61° |
| 2026-05-03 22:24 | 19.25695 | -81.49912 | 2422 ft | 180 kts | 76° |
| 2026-05-03 22:25 | 19.26059 | -81.48679 | 2261 ft | 172 kts | 77° |
| 2026-05-03 22:25 | 19.26396 | -81.47459 | 2104 ft | 173 kts | 77° |
| 2026-05-03 22:25 | 19.26716 | -81.46253 | 1997 ft | 167 kts | 78° |
| 2026-05-03 22:25 | 19.27018 | -81.45076 | 1697 ft | 164 kts | 78° |
| 2026-05-03 22:26 | 19.27324 | -81.43935 | 1467 ft | 156 kts | 78° |
| 2026-05-03 22:26 | 19.27595 | -81.42840 | 1259 ft | 152 kts | 78° |
| 2026-05-03 22:26 | 19.27854 | -81.41763 | 987 ft | 152 kts | 80° |
| 2026-05-03 22:26 | 19.28116 | -81.40661 | 792 ft | 155 kts | 79° |
| 2026-05-03 22:27 | 19.28379 | -81.39555 | 616 ft | 157 kts | 79° |
| 2026-05-03 22:27 | 19.28658 | -81.38430 | 371 ft | 159 kts | 80° |
| 2026-05-03 22:27 | 19.28918 | -81.37314 | 175 ft | 153 kts | 79° |
| 2026-05-03 22:27 | 19.29167 | -81.36257 | 24 ft | 138 kts | 79° |
| 2026-05-03 22:28 | 19.29344 | -81.35495 | 22 ft | 72 kts | 76° |
| 2026-05-03 22:28 | 19.29434 | -81.35114 | 24 ft | 37 kts | 76° |
| 2026-05-03 22:28 | 19.29475 | -81.34940 | 26 ft | 18 kts | 76° |
| 2026-05-03 22:28 | 19.29514 | -81.34876 | 29 ft | 8 kts | 10° |
| 2026-05-03 22:29 | 19.29549 | -81.34899 | 26 ft | 8 kts | 304° |
| 2026-05-03 22:29 | 19.29553 | -81.34989 | 22 ft | 16 kts | 257° |
| 2026-05-03 22:29 | 19.29522 | -81.35127 | 21 ft | 21 kts | 256° |
| 2026-05-03 22:29 | 19.29486 | -81.35283 | 21 ft | 23 kts | 256° |
| 2026-05-03 22:30 | 19.29452 | -81.35437 | 22 ft | 20 kts | 257° |
| 2026-05-03 22:30 | 19.29431 | -81.35542 | 20 ft | 9 kts | 269° |
| 2026-05-03 22:30 | 19.29451 | -81.35579 | 22 ft | 3 kts | 323° |
| 2026-05-03 22:30 | 19.29470 | -81.35599 | 21 ft | 5 kts | 302° |
| 2026-05-03 22:31 | 19.29484 | -81.35633 | 21 ft | 4 kts | 317° |
| 2026-05-03 22:31 | 19.29511 | -81.35645 | 21 ft | 5 kts | 343° |
| 2026-05-03 22:31 | 19.29534 | -81.35652 | 21 ft | 2 kts | 345° |
| 2026-05-03 22:31 | 19.29545 | -81.35655 | 21 ft | 1 kts | 345° |